Time;durP1;ratioP1;P1;durP2;ratioP2;P2;SDS_P1;SDS_P2;PMS_P1;PMS_P2;Temp;Humidity;BMP_temperature;BMP_pressure;BME280_temperature;BME280_humidity;BME280_pressure;Samples;Min_cycle;Max_cycle;Signal;HPM_P1;HPM_P2
2021/10/09 00:00:18;;;;;;;26.40;16.20;;;9.40;99.90;;;10.25;100.00;99187.47;5012351;28;20825;-79
2021/10/09 00:02:47;;;;;;;24.53;15.10;;;9.30;99.90;;;10.20;100.00;99184.53;5002924;28;20518;-79
2021/10/09 00:05:15;;;;;;;30.77;16.50;;;9.30;99.90;;;10.18;100.00;99183.84;5015375;28;20490;-79
2021/10/09 00:07:45;;;;;;;24.27;15.93;;;9.30;99.90;;;10.13;100.00;99185.28;5011423;28;20891;-79
2021/10/09 00:10:24;;;;;;;34.30;16.40;;;9.20;99.90;;;10.15;100.00;99181.56;5009266;28;20491;-79
2021/10/09 00:12:53;;;;;;;34.47;19.70;;;9.20;99.90;;;10.16;100.00;99183.19;5008210;28;20568;-79
2021/10/09 00:15:22;;;;;;;33.67;19.87;;;9.20;99.90;;;10.14;100.00;99185.13;5006029;28;20471;-79
2021/10/09 00:17:51;;;;;;;39.50;20.20;;;9.10;99.90;;;10.12;100.00;99181.84;5010400;28;21013;-79
2021/10/09 00:20:19;;;;;;;42.57;23.70;;;9.10;99.90;;;10.09;100.00;99182.16;5008875;28;20474;-80
2021/10/09 00:22:48;;;;;;;44.60;23.33;;;9.10;99.90;;;10.05;100.00;99186.03;5005884;28;20474;-79
2021/10/09 00:25:19;;;;;;;35.10;21.30;;;9.10;99.90;;;10.04;100.00;99189.63;5002582;28;20498;-79
2021/10/09 00:27:48;;;;;;;42.33;21.67;;;9.00;99.90;;;9.98;100.00;99190.25;5009551;28;20529;-79
2021/10/09 00:30:17;;;;;;;35.90;19.90;;;9.00;99.90;;;9.90;100.00;99188.41;5004133;28;20517;-80
2021/10/09 00:32:45;;;;;;;36.50;20.37;;;8.90;99.90;;;9.88;100.00;99192.16;5006264;28;20459;-79
2021/10/09 00:35:14;;;;;;;36.57;19.33;;;8.90;99.90;;;9.79;100.00;99191.25;5010164;28;20498;-79
2021/10/09 00:37:44;;;;;;;33.40;17.97;;;8.80;99.90;;;9.73;100.00;99191.06;5009023;28;20459;-79
2021/10/09 00:40:13;;;;;;;33.43;19.00;;;8.70;99.90;;;9.74;100.00;99192.72;5012499;28;20972;-80
2021/10/09 00:42:43;;;;;;;31.23;19.30;;;8.80;99.90;;;9.69;100.00;99192.34;5007796;28;20529;-79
2021/10/09 00:45:12;;;;;;;44.23;19.23;;;8.70;99.90;;;9.56;100.00;99190.97;5007936;28;20471;-79
2021/10/09 00:47:41;;;;;;;33.70;19.67;;;8.50;99.90;;;9.59;100.00;99193.25;5012040;28;21343;-79
2021/10/09 00:50:10;;;;;;;27.97;17.37;;;8.60;99.90;;;9.61;100.00;99193.91;5007539;28;20463;-79
2021/10/09 00:52:42;;;;;;;29.70;17.13;;;8.60;99.90;;;9.48;100.00;99190.06;5008692;28;20521;-79
2021/10/09 00:55:11;;;;;;;29.70;18.00;;;8.40;99.90;;;9.48;100.00;99193.50;5011918;28;20494;-79
2021/10/09 00:57:46;;;;;;;33.50;18.17;;;8.50;99.90;;;9.50;100.00;99196.78;5011683;28;20450;-79
2021/10/09 01:00:15;;;;;;;28.73;17.00;;;8.50;99.90;;;9.52;100.00;99187.00;5012794;28;20450;-79
2021/10/09 01:02:44;;;;;;;30.37;18.70;;;8.60;99.90;;;9.45;100.00;99182.53;5007301;28;20533;-79
2021/10/09 01:05:12;;;;;;;28.60;17.60;;;8.60;99.90;;;9.44;100.00;99179.09;5013105;28;20478;-79
2021/10/09 01:07:41;;;;;;;33.13;17.70;;;8.60;99.90;;;9.46;100.00;99185.00;5018911;28;20493;-79
2021/10/09 01:10:10;;;;;;;36.57;19.33;;;8.60;99.90;;;9.43;100.00;99184.50;5009631;28;20450;-79
2021/10/09 01:12:38;;;;;;;30.90;19.03;;;8.60;99.90;;;9.33;100.00;99179.38;5009899;28;20455;-79
2021/10/09 01:15:20;;;;;;;34.60;18.70;;;8.40;99.90;;;9.36;100.00;99179.06;5015685;28;20541;-79
2021/10/09 01:17:49;;;;;;;39.67;19.93;;;8.50;99.90;;;9.37;100.00;99190.34;5004224;28;20471;-79
2021/10/09 01:20:19;;;;;;;30.87;18.10;;;8.60;99.90;;;9.37;100.00;99185.91;5004083;28;20451;-80
2021/10/09 01:22:49;;;;;;;29.03;16.90;;;8.60;99.90;;;9.35;100.00;99181.81;5014846;28;20458;-79
2021/10/09 01:25:17;;;;;;;34.70;17.00;;;8.50;99.90;;;9.32;100.00;99182.94;5011334;28;20463;-79
2021/10/09 01:27:47;;;;;;;31.33;17.20;;;8.50;99.90;;;9.34;100.00;99174.94;5012025;28;20541;-79
2021/10/09 01:30:15;;;;;;;36.43;17.70;;;8.40;99.90;;;9.33;100.00;99183.75;5008520;28;20541;-79
2021/10/09 01:32:44;;;;;;;32.50;17.80;;;8.50;99.90;;;9.33;100.00;99179.38;5008569;28;20529;-79
2021/10/09 01:35:12;;;;;;;33.83;19.27;;;8.50;99.90;;;9.32;100.00;99171.69;5012536;28;21283;-79
2021/10/09 01:37:43;;;;;;;32.53;18.80;;;8.60;99.90;;;9.31;100.00;99173.47;5010110;28;20848;-79
2021/10/09 01:40:12;;;;;;;36.50;19.13;;;8.60;99.90;;;9.38;100.00;99169.28;5009757;28;20485;-79
2021/10/09 01:42:41;;;;;;;32.37;19.10;;;8.60;99.90;;;9.38;100.00;99173.66;5004048;28;20494;-79
2021/10/09 01:45:10;;;;;;;38.73;18.57;;;8.60;99.90;;;9.44;100.00;99168.66;5008140;28;20513;-79
2021/10/09 01:47:43;;;;;;;29.27;17.40;;;8.60;99.90;;;9.43;100.00;99169.66;5012575;28;20486;-79
2021/10/09 01:50:12;;;;;;;32.93;19.00;;;8.60;99.90;;;9.47;100.00;99168.38;5004736;28;20485;-79
2021/10/09 01:52:42;;;;;;;28.37;16.97;;;8.60;99.90;;;9.45;100.00;99170.31;5010801;28;20962;-80
2021/10/09 01:55:11;;;;;;;34.27;18.40;;;8.60;99.90;;;9.49;100.00;99163.00;5010292;28;20513;-79
2021/10/09 01:57:39;;;;;;;34.30;17.90;;;8.70;99.90;;;9.47;100.00;99167.56;5011822;28;20493;-79
2021/10/09 02:00:09;;;;;;;31.13;17.47;;;8.70;99.90;;;9.48;100.00;99164.78;5009989;28;20510;-79
2021/10/09 02:02:38;;;;;;;30.33;17.80;;;8.70;99.90;;;9.49;100.00;99163.00;5010226;28;20556;-79
2021/10/09 02:05:07;;;;;;;34.87;18.20;;;8.70;99.90;;;9.52;100.00;99162.69;5009920;28;20556;-79
2021/10/09 02:07:36;;;;;;;30.43;18.13;;;8.80;99.90;;;9.51;100.00;99161.06;5017276;28;21885;-79
2021/10/09 02:10:07;;;;;;;34.33;19.20;;;8.80;99.90;;;9.49;100.00;99161.22;5010434;28;20471;-79
2021/10/09 02:12:35;;;;;;;29.30;17.63;;;8.70;99.90;;;9.55;100.00;99167.59;5014642;28;21005;-79
2021/10/09 02:15:09;;;;;;;32.17;17.33;;;8.70;99.90;;;9.55;100.00;99163.19;5022618;28;20857;-79
2021/10/09 02:26:02;;;;;;;35.17;19.50;;;8.70;99.90;;;9.58;100.00;99155.06;5011631;28;20474;-79
2021/10/09 02:28:31;;;;;;;32.20;19.27;;;8.70;99.90;;;9.54;100.00;99158.94;5010238;28;20607;-79
2021/10/09 02:30:59;;;;;;;40.43;17.40;;;8.60;99.90;;;9.52;100.00;99153.06;5010745;28;20490;-79
2021/10/09 02:33:28;;;;;;;34.93;18.37;;;8.60;99.90;;;9.53;100.00;99153.88;5001720;28;21002;-79
2021/10/09 02:35:57;;;;;;;30.37;18.27;;;8.60;99.90;;;9.53;100.00;99157.31;5009344;28;20471;-79
2021/10/09 02:38:25;;;;;;;36.10;19.07;;;8.60;99.90;;;9.46;100.00;99155.47;5005689;28;20471;-80
2021/10/09 02:40:54;;;;;;;33.70;19.13;;;8.60;99.90;;;9.39;100.00;99150.03;5007880;28;20470;-79
2021/10/09 02:43:24;;;;;;;27.40;17.57;;;8.60;99.90;;;9.35;100.00;99151.31;5012282;28;20797;-79
2021/10/09 02:45:52;;;;;;;29.40;16.57;;;8.50;99.90;;;9.33;100.00;99155.88;5011755;28;20976;-79
2021/10/09 02:48:21;;;;;;;35.10;18.57;;;8.50;99.90;;;9.28;100.00;99154.69;5003549;28;20546;-79
2021/10/09 02:50:50;;;;;;;31.03;17.53;;;8.40;99.90;;;9.29;100.00;99146.72;5010496;28;20467;-79
2021/10/09 02:53:18;;;;;;;33.80;18.67;;;8.30;99.90;;;9.27;100.00;99148.63;5010994;28;20459;-79
2021/10/09 02:55:47;;;;;;;32.60;19.20;;;8.30;99.90;;;9.23;100.00;99155.16;5013877;28;20543;-79
2021/10/09 02:58:16;;;;;;;34.10;18.43;;;8.30;99.90;;;9.24;100.00;99151.53;5010656;28;20459;-79
2021/10/09 03:00:45;;;;;;;29.57;18.20;;;8.30;99.90;;;9.22;100.00;99148.28;5012667;28;20467;-79
2021/10/09 03:03:14;;;;;;;36.23;18.00;;;8.30;99.90;;;9.13;100.00;99151.78;5010663;28;20561;-79
2021/10/09 03:05:43;;;;;;;32.43;18.73;;;8.20;99.90;;;9.05;100.00;99149.13;5008040;28;20533;-79
2021/10/09 03:08:12;;;;;;;38.10;18.40;;;8.10;99.90;;;9.02;100.00;99159.84;5004747;28;20525;-79
2021/10/09 03:10:41;;;;;;;30.03;18.23;;;8.20;99.90;;;8.96;100.00;99155.22;5008993;28;20462;-79
2021/10/09 03:13:10;;;;;;;30.13;18.07;;;8.20;99.90;;;8.89;100.00;99152.38;5020882;28;20470;-79
2021/10/09 03:15:39;;;;;;;42.23;19.87;;;8.10;99.90;;;8.85;100.00;99147.63;5010146;28;20463;-79
2021/10/09 03:18:09;;;;;;;31.77;18.80;;;7.90;99.90;;;8.83;100.00;99145.16;5007955;28;20545;-80
2021/10/09 03:20:37;;;;;;;33.27;18.77;;;8.00;99.90;;;8.79;100.00;99156.03;5007496;28;21065;-79
2021/10/09 03:23:06;;;;;;;39.83;18.97;;;7.90;99.90;;;8.75;100.00;99154.69;5007704;28;20466;-79
2021/10/09 03:25:35;;;;;;;30.43;17.80;;;7.90;99.90;;;8.69;100.00;99153.50;5008010;28;20466;-79
2021/10/09 03:28:03;;;;;;;31.40;19.30;;;7.80;99.90;;;8.66;100.00;99150.38;5009171;28;20458;-79
2021/10/09 03:30:33;;;;;;;42.40;18.80;;;7.70;99.90;;;8.62;100.00;99157.66;5008678;28;20491;-79
2021/10/09 03:33:01;;;;;;;31.47;17.50;;;7.70;99.90;;;8.58;100.00;99156.31;5005315;28;20458;-79
2021/10/09 03:35:31;;;;;;;33.37;16.97;;;7.60;99.90;;;8.53;100.00;99151.56;5000569;28;20467;-79
2021/10/09 03:38:00;;;;;;;30.93;17.90;;;7.60;99.90;;;8.46;100.00;99153.09;5004271;28;20459;-79
2021/10/09 03:40:30;;;;;;;34.87;18.27;;;7.60;99.90;;;8.42;100.00;99146.53;5007615;28;20529;-80
2021/10/09 03:43:03;;;;;;;34.77;18.87;;;7.40;99.90;;;8.40;100.00;99152.88;5003602;28;20537;-79
2021/10/09 03:45:34;;;;;;;33.37;19.03;;;7.40;99.90;;;8.38;100.00;99153.00;4999095;28;20454;-80
2021/10/09 03:53:55;;;;;;;33.40;18.23;;;7.50;99.90;;;8.29;100.00;99161.72;4963466;28;21041;-78
2021/10/09 03:56:24;;;;;;;39.13;18.37;;;7.30;99.90;;;8.26;100.00;99156.72;5004577;28;20463;-79
2021/10/09 03:58:53;;;;;;;34.43;18.87;;;7.30;99.90;;;8.10;100.00;99164.34;5015663;28;20454;-78
2021/10/09 04:01:22;;;;;;;30.27;16.50;;;7.00;99.90;;;8.12;100.00;99159.84;5006357;28;20470;-78
2021/10/09 04:03:51;;;;;;;27.97;17.23;;;7.10;99.90;;;8.03;100.00;99160.69;5009898;28;20462;-77
2021/10/09 04:06:21;;;;;;;33.57;17.67;;;7.00;99.90;;;7.99;100.00;99157.53;5005562;28;20503;-77
2021/10/09 04:08:50;;;;;;;31.20;17.30;;;7.00;99.90;;;8.01;100.00;99152.19;5011042;28;20521;-77
2021/10/09 04:11:18;;;;;;;29.33;16.90;;;7.00;99.90;;;7.99;100.00;99157.53;5008251;28;20513;-77
2021/10/09 04:13:50;;;;;;;31.90;18.30;;;7.00;99.90;;;7.97;100.00;99158.66;5008845;28;20489;-78
2021/10/09 04:16:18;;;;;;;30.80;17.53;;;7.00;99.90;;;7.95;100.00;99158.78;5008273;28;20574;-76
2021/10/09 04:18:47;;;;;;;30.73;16.13;;;7.00;99.90;;;7.96;100.00;99160.44;5010044;28;20623;-77
2021/10/09 04:21:15;;;;;;;31.70;17.70;;;7.00;99.90;;;7.83;100.00;99159.13;5010836;28;20945;-77
2021/10/09 04:23:45;;;;;;;36.80;18.10;;;6.80;99.90;;;7.84;100.00;99155.56;5012894;28;20944;-80
2021/10/09 04:26:14;;;;;;;28.30;16.37;;;6.90;99.90;;;7.86;100.00;99158.81;5010577;28;21010;-77
2021/10/09 04:28:42;;;;;;;33.33;17.33;;;7.00;99.90;;;7.83;100.00;99159.13;5006463;28;20874;-77
2021/10/09 04:31:11;;;;;;;31.10;16.63;;;6.90;99.90;;;7.80;100.00;99154.19;5007219;28;20490;-77
2021/10/09 04:33:39;;;;;;;31.77;18.23;;;6.80;99.90;;;7.77;100.00;99159.69;5009515;28;20924;-77
2021/10/09 04:36:08;;;;;;;33.67;17.60;;;6.80;99.90;;;7.66;100.00;99163.28;5019756;28;20581;-76
2021/10/09 04:38:37;;;;;;;29.63;17.10;;;6.60;99.90;;;7.56;100.00;99158.09;5014331;28;20779;-77
2021/10/09 04:41:06;;;;;;;35.83;17.97;;;6.50;99.90;;;7.60;100.00;99156.03;5016703;28;20443;-77
2021/10/09 04:43:35;;;;;;;29.43;15.77;;;6.60;99.90;;;7.57;100.00;99159.72;5012926;28;20454;-77
2021/10/09 04:46:04;;;;;;;32.67;17.60;;;6.60;99.90;;;7.53;100.00;99158.34;5010638;28;20471;-77
2021/10/09 04:48:33;;;;;;;33.60;17.97;;;6.50;99.90;;;7.51;100.00;99160.28;5010931;28;20455;-77
2021/10/09 04:51:01;;;;;;;35.40;16.80;;;6.50;99.90;;;7.54;100.00;99156.56;5017098;28;20869;-77
2021/10/09 04:53:30;;;;;;;28.93;16.90;;;6.60;99.90;;;7.49;100.00;99158.78;5018815;28;20442;-77
2021/10/09 04:55:58;;;;;;;31.50;16.50;;;6.50;99.90;;;7.39;100.00;99156.19;5017707;28;20512;-77
2021/10/09 04:58:28;;;;;;;29.40;15.43;;;6.40;99.90;;;7.39;100.00;99161.38;5017819;28;20454;-77
2021/10/09 05:00:56;;;;;;;33.97;17.20;;;6.40;99.90;;;7.28;100.00;99148.56;5015788;28;20517;-77
2021/10/09 05:03:25;;;;;;;32.03;16.10;;;6.30;99.90;;;7.19;100.00;99151.97;5022536;28;20985;-77
2021/10/09 05:05:54;;;;;;;26.80;16.10;;;6.10;99.90;;;7.14;100.00;99151.59;5023932;28;20474;-77
2021/10/09 05:08:22;;;;;;;45.83;18.60;;;6.10;99.90;;;7.15;100.00;99148.00;5023021;28;20450;-77
2021/10/09 05:10:51;;;;;;;32.13;16.83;;;6.10;99.90;;;7.15;100.00;99155.81;5013546;28;20498;-77
2021/10/09 05:13:20;;;;;;;33.23;16.93;;;6.20;99.90;;;7.16;100.00;99156.63;5010132;28;20903;-77
2021/10/09 05:15:50;;;;;;;27.10;17.00;;;6.20;99.90;;;7.04;100.00;99151.59;5009797;28;20861;-77
2021/10/09 05:18:18;;;;;;;42.47;17.43;;;6.00;99.90;;;6.99;100.00;99153.78;5006560;28;20467;-77
2021/10/09 05:20:47;;;;;;;34.53;15.67;;;5.90;99.90;;;7.06;100.00;99160.06;5009965;28;20443;-77
2021/10/09 05:23:16;;;;;;;29.13;17.23;;;6.00;99.90;;;7.01;100.00;99156.25;5009516;28;20537;-77
2021/10/09 05:25:45;;;;;;;28.63;17.20;;;6.00;99.90;;;6.98;100.00;99154.72;5009570;28;20451;-77
2021/10/09 05:28:16;;;;;;;30.53;17.03;;;6.00;99.90;;;7.06;100.00;99161.84;5010175;28;20522;-77
2021/10/09 05:30:47;;;;;;;28.50;17.00;;;6.10;99.90;;;6.96;100.00;99166.22;5009566;28;20552;-77
2021/10/09 05:33:26;;;;;;;33.63;16.60;;;5.90;99.90;;;6.92;100.00;99167.44;5010099;28;20813;-77
2021/10/09 05:35:54;;;;;;;36.23;17.13;;;5.90;99.90;;;6.90;100.00;99164.19;5010048;28;20512;-77
2021/10/09 05:38:23;;;;;;;29.40;17.80;;;5.90;99.90;;;6.90;100.00;99175.41;5010401;28;20479;-77
2021/10/09 05:40:55;;;;;;;33.60;16.73;;;5.90;99.90;;;6.88;100.00;99173.88;5012704;28;20451;-77
2021/10/09 05:43:25;;;;;;;30.30;16.47;;;5.90;99.90;;;6.85;100.00;99181.94;5015185;28;20541;-78
2021/10/09 05:45:53;;;;;;;27.73;16.13;;;5.90;99.90;;;6.85;100.00;99177.56;5010402;28;20455;-77
2021/10/09 05:48:24;;;;;;;27.03;15.63;;;5.80;99.90;;;6.80;100.00;99189.34;5009432;28;20478;-77
2021/10/09 05:50:57;;;;;;;30.77;16.77;;;5.80;99.90;;;6.64;100.00;99186.41;5009443;28;20540;-77
2021/10/09 05:56:17;;;;;;;29.50;16.60;;;5.50;99.90;;;6.60;100.00;99193.66;5007096;28;20824;-77
2021/10/09 05:58:52;;;;;;;26.13;16.43;;;5.60;99.90;;;6.64;100.00;99199.41;5008782;28;20504;-77
2021/10/09 06:32:34;;;;;;;34.90;16.50;;;5.60;99.90;;;6.54;100.00;99215.81;5004227;28;20786;-77
2021/10/09 06:59:56;;;;;;;29.13;16.33;;;5.90;99.90;;;6.84;100.00;99238.31;5006266;28;20459;-77
2021/10/09 07:02:24;;;;;;;33.57;17.27;;;6.00;99.90;;;6.85;100.00;99244.34;5011412;28;20450;-76
2021/10/09 07:04:53;;;;;;;30.07;15.80;;;6.00;99.90;;;6.89;100.00;99237.91;5012507;28;20983;-77
2021/10/09 07:07:22;;;;;;;26.50;15.20;;;6.00;99.90;;;6.82;100.00;99242.00;5012871;28;20524;-77
2021/10/09 07:09:51;;;;;;;35.43;16.00;;;5.80;99.90;;;6.89;100.00;99246.53;5012314;28;20467;-77
2021/10/09 07:12:20;;;;;;;34.70;17.00;;;5.90;99.90;;;6.91;100.00;99249.00;5011465;28;20482;-77
2021/10/09 07:14:48;;;;;;;26.10;15.07;;;5.90;99.90;;;6.91;100.00;99246.38;5012025;28;21010;-77
2021/10/09 07:17:17;;;;;;;31.80;16.43;;;5.90;99.90;;;6.93;100.00;99244.50;5011878;28;20471;-77
2021/10/09 07:19:45;;;;;;;30.70;16.23;;;6.00;99.90;;;6.97;100.00;99254.50;5012747;28;20438;-77
2021/10/09 07:22:14;;;;;;;25.87;15.53;;;6.10;99.90;;;6.97;100.00;99256.28;5011955;28;20459;-77
2021/10/09 07:25:05;;;;;;;37.90;16.77;;;6.00;99.90;;;7.03;100.00;99256.56;5012691;28;20871;-77
2021/10/09 07:27:34;;;;;;;28.47;15.97;;;6.10;99.90;;;7.11;100.00;99255.88;5005136;28;20443;-77
2021/10/09 07:30:03;;;;;;;27.47;15.30;;;6.20;99.90;;;7.14;100.00;99254.78;5013351;28;20454;-77
2021/10/09 07:32:32;;;;;;;28.37;15.97;;;6.20;99.90;;;7.12;100.00;99261.88;5012316;28;20804;-77
2021/10/09 07:35:00;;;;;;;26.17;16.43;;;6.20;99.90;;;7.20;100.00;99265.47;5005581;28;20472;-77
2021/10/09 07:37:29;;;;;;;30.83;16.77;;;6.30;99.90;;;7.27;100.00;99265.75;5012405;28;20852;-77
2021/10/09 07:39:58;;;;;;;28.00;16.03;;;6.50;99.90;;;7.35;100.00;99263.28;5007273;28;20944;-77
2021/10/09 07:42:32;;;;;;;32.33;16.53;;;6.60;99.90;;;7.46;100.00;99257.97;5013450;28;20817;-77
2021/10/09 07:45:00;;;;;;;26.87;15.23;;;6.70;99.90;;;7.57;100.00;99263.81;5020935;28;20447;-77
2021/10/09 07:47:29;;;;;;;28.67;14.83;;;6.80;99.90;;;7.68;100.00;99264.63;5013146;28;20864;-77
2021/10/09 07:49:57;;;;;;;32.00;16.40;;;6.90;99.90;;;7.74;100.00;99264.09;5012123;28;20443;-77
2021/10/09 07:52:26;;;;;;;27.03;14.83;;;7.00;99.90;;;7.83;100.00;99258.06;5010085;28;20503;-77
2021/10/09 07:54:54;;;;;;;29.87;14.97;;;7.10;99.90;;;7.90;100.00;99261.75;5012065;28;20458;-77
2021/10/09 07:57:23;;;;;;;29.27;15.50;;;7.20;99.90;;;7.98;100.00;99265.28;5013184;28;20586;-77
2021/10/09 07:59:53;;;;;;;31.60;15.30;;;7.30;99.90;;;8.07;100.00;99264.44;5011848;28;20783;-77
2021/10/09 08:02:22;;;;;;;38.00;14.50;;;7.30;99.90;;;8.14;100.00;99266.47;5010028;28;20533;-77
2021/10/09 08:04:51;;;;;;;23.80;14.17;;;7.40;99.90;;;8.19;100.00;99262.47;5010139;28;20528;-77
2021/10/09 08:07:21;;;;;;;28.23;15.87;;;7.50;99.90;;;8.30;100.00;99261.53;5010373;28;20455;-77
2021/10/09 08:09:49;;;;;;;26.87;14.30;;;7.60;99.90;;;8.37;100.00;99263.41;5010451;28;20799;-77
2021/10/09 08:12:18;;;;;;;26.27;13.90;;;7.70;99.90;;;8.46;100.00;99265.19;5010494;28;20503;-78
2021/10/09 08:14:46;;;;;;;29.70;14.53;;;7.80;99.90;;;8.53;100.00;99263.66;5009910;28;20475;-77
2021/10/09 08:17:16;;;;;;;25.23;13.70;;;7.90;99.90;;;8.63;100.00;99257.56;5010281;28;20455;-77
2021/10/09 08:19:45;;;;;;;25.03;12.30;;;8.00;99.90;;;8.71;100.00;99262.88;5008639;28;20442;-77
2021/10/09 08:22:14;;;;;;;31.90;13.20;;;8.10;99.90;;;8.78;100.00;99266.56;5010375;28;20935;-77
2021/10/09 08:24:50;;;;;;;22.23;12.73;;;8.20;99.90;;;8.85;100.00;99252.75;5005804;28;20435;-78
2021/10/09 08:27:44;;;;;;;20.87;12.37;;;8.20;99.90;;;8.92;100.00;99251.19;5010772;28;20477;-77
2021/10/09 08:36:16;;;;;;;19.63;11.67;;;8.40;99.90;;;9.12;100.00;99257.13;4931304;29;20458;-77
2021/10/09 08:38:50;;;;;;;20.73;10.97;;;8.50;99.90;;;9.19;100.00;99257.38;4930851;29;20881;-78
2021/10/09 08:41:20;;;;;;;18.23;11.30;;;8.60;99.90;;;9.26;100.00;99261.03;4979506;28;20604;-78
2021/10/09 08:43:53;;;;;;;20.17;11.90;;;8.70;99.90;;;9.32;100.00;99260.41;5019411;28;20798;-77
2021/10/09 08:46:23;;;;;;;20.03;11.87;;;8.70;99.90;;;9.36;100.00;99265.22;5008812;28;20459;-77
2021/10/09 08:48:54;;;;;;;19.60;11.70;;;8.80;99.90;;;9.41;100.00;99262.94;5010321;28;20833;-78
2021/10/09 08:51:25;;;;;;;20.90;11.23;;;8.80;99.90;;;9.46;100.00;99257.28;5011046;28;21078;-78
2021/10/09 08:53:56;;;;;;;22.93;10.80;;;8.80;99.90;;;9.51;100.00;99263.69;5011882;28;20448;-77
2021/10/09 08:56:34;;;;;;;25.10;11.47;;;8.90;99.90;;;9.59;100.00;99268.16;5011085;28;20451;-77
2021/10/09 08:59:21;;;;;;;19.73;10.70;;;9.00;99.90;;;9.66;100.00;99260.53;5012598;28;20446;-78
2021/10/09 09:02:06;;;;;;;20.07;11.20;;;9.10;99.90;;;9.73;100.00;99254.56;5004320;28;20482;-77
2021/10/09 09:04:47;;;;;;;26.13;12.13;;;9.10;99.90;;;9.78;100.00;99265.41;5009622;28;20494;-77
2021/10/09 09:40:54;;;;;;;20.63;9.77;;;9.90;99.90;;;10.48;100.00;99233.00;4931306;29;20475;-77
2021/10/09 09:43:22;;;;;;;25.13;10.67;;;9.90;99.90;;;10.54;100.00;99224.53;5000450;28;20454;-78
2021/10/09 09:45:51;;;;;;;17.00;9.80;;;10.00;99.90;;;10.60;100.00;99229.13;5018600;28;20457;-78
2021/10/09 09:48:23;;;;;;;20.03;10.30;;;10.10;99.90;;;10.64;100.00;99223.59;5014519;28;20820;-78
2021/10/09 09:50:52;;;;;;;20.40;10.80;;;10.20;99.90;;;10.71;100.00;99229.81;5015238;28;20955;-78
2021/10/09 09:53:22;;;;;;;21.90;9.80;;;10.20;99.90;;;10.75;100.00;99218.06;5014556;28;20654;-78
2021/10/09 09:55:51;;;;;;;16.30;8.90;;;10.20;99.90;;;10.84;100.00;99227.56;5014067;28;20501;-78
2021/10/09 09:58:25;;;;;;;15.30;10.27;;;10.30;99.90;;;10.89;100.00;99222.69;5012544;28;20509;-78
2021/10/09 10:00:57;;;;;;;17.07;9.27;;;10.40;99.90;;;10.94;100.00;99221.22;5012243;28;20450;-78
2021/10/09 10:03:29;;;;;;;19.97;10.20;;;10.40;99.90;;;11.00;100.00;99215.34;5012990;28;20582;-77
2021/10/09 10:05:58;;;;;;;38.83;10.60;;;10.50;99.90;;;11.06;100.00;99219.94;5013109;28;20466;-78
2021/10/09 10:08:28;;;;;;;17.33;9.67;;;10.60;99.90;;;11.13;100.00;99219.31;5013165;28;20451;-79
2021/10/09 10:10:58;;;;;;;20.63;9.57;;;10.60;99.90;;;11.17;100.00;99216.22;5013190;28;20443;-78
2021/10/09 10:13:32;;;;;;;18.37;10.60;;;10.70;99.90;;;11.25;100.00;99221.44;5013131;28;20534;-78
2021/10/09 10:16:08;;;;;;;16.17;10.10;;;10.70;99.90;;;11.31;100.00;99212.94;5012965;28;20451;-78
2021/10/09 10:18:58;;;;;;;13.77;8.37;;;10.80;99.90;;;11.38;100.00;99215.72;5014047;28;20554;-78
2021/10/09 10:21:50;;;;;;;16.33;8.87;;;10.80;99.90;;;11.43;100.00;99219.50;5010226;28;21022;-79
2021/10/09 10:24:46;;;;;;;15.20;9.80;;;10.90;99.90;;;11.48;100.00;99213.78;5010508;28;20577;-79
2021/10/09 10:27:40;;;;;;;18.13;8.90;;;11.00;99.90;;;11.52;100.00;99213.25;5012682;28;20450;-79
2021/10/09 10:30:25;;;;;;;18.43;9.67;;;11.00;99.90;;;11.57;100.00;99212.78;5012724;28;20439;-79
2021/10/09 10:33:41;;;;;;;19.53;9.33;;;11.10;99.90;;;11.63;100.00;99213.94;5013139;28;20512;-79
2021/10/09 10:36:14;;;;;;;19.73;9.30;;;11.10;99.90;;;11.65;100.00;99210.16;5012080;28;20508;-80
2021/10/09 10:38:55;;;;;;;13.67;8.23;;;11.20;99.90;;;11.69;100.00;99206.22;5013967;28;20792;-80
2021/10/09 10:41:47;;;;;;;17.57;8.03;;;11.20;99.90;;;11.76;100.00;99220.34;5013650;28;20443;-79
2021/10/09 10:44:51;;;;;;;27.13;8.67;;;11.20;99.90;;;11.83;100.00;99208.22;5021423;28;20478;-79
2021/10/09 10:47:41;;;;;;;13.90;7.97;;;11.30;99.90;;;11.90;100.00;99208.38;5011432;28;20501;-79
2021/10/09 10:51:10;;;;;;;14.50;6.80;;;11.40;99.90;;;11.97;100.00;99209.34;5013962;28;20501;-80
2021/10/09 10:57:25;;;;;;;13.30;8.40;;;11.50;99.90;;;12.09;100.00;99202.75;5016167;28;20455;-79
2021/10/09 11:00:12;;;;;;;13.00;7.67;;;11.70;99.90;;;12.16;100.00;99198.47;5009662;28;20458;-79
2021/10/09 11:02:47;;;;;;;11.83;7.33;;;11.70;99.90;;;12.25;100.00;99196.63;5012105;28;20932;-79
2021/10/09 11:05:18;;;;;;;12.60;7.10;;;11.80;99.90;;;12.37;100.00;99196.09;5004342;28;20471;-79
2021/10/09 11:08:07;;;;;;;11.97;6.80;;;11.90;99.90;;;12.47;100.00;99191.47;5003451;28;20805;-79
2021/10/09 11:10:47;;;;;;;11.53;6.70;;;12.10;99.90;;;12.55;100.00;99194.06;5012710;28;20469;-79
2021/10/09 11:13:16;;;;;;;17.40;8.07;;;12.10;99.90;;;12.60;100.00;99186.47;5012262;28;20514;-79
2021/10/09 11:15:47;;;;;;;12.10;6.57;;;12.10;99.90;;;12.65;100.00;99185.16;5011656;28;20443;-79
2021/10/09 11:18:16;;;;;;;12.93;7.60;;;12.10;99.90;;;12.71;100.00;99187.06;5012913;28;20951;-80
2021/10/09 11:20:46;;;;;;;22.03;7.00;;;12.20;99.90;;;12.78;100.00;99188.84;5012177;28;20436;-80
2021/10/09 11:23:16;;;;;;;13.83;7.60;;;12.30;99.90;;;12.84;100.00;99187.34;5013219;28;20469;-79
2021/10/09 11:25:47;;;;;;;12.60;7.50;;;12.30;99.90;;;12.87;100.00;99187.00;5011327;28;20557;-79
2021/10/09 11:28:22;;;;;;;25.40;7.30;;;12.40;99.90;;;12.97;100.00;99187.59;5013513;28;20509;-79
2021/10/09 11:30:54;;;;;;;13.23;7.27;;;12.50;99.90;;;13.00;100.00;99187.25;5012190;28;20534;-79
2021/10/09 11:33:24;;;;;;;11.17;6.73;;;12.50;99.90;;;13.04;100.00;99184.09;5013122;28;20502;-79
2021/10/09 11:35:54;;;;;;;11.63;7.00;;;12.60;99.90;;;13.05;100.00;99190.19;5012981;28;20442;-79
2021/10/09 11:38:28;;;;;;;16.10;6.50;;;12.50;99.90;;;13.09;100.00;99191.47;5013414;28;20451;-79
2021/10/09 11:40:59;;;;;;;9.13;6.60;;;12.60;99.90;;;13.12;100.00;99193.75;5014995;28;20534;-79
2021/10/09 11:43:42;;;;;;;10.23;6.97;;;12.60;99.90;;;13.15;100.00;99182.91;5019099;28;20600;-79
2021/10/09 11:46:45;;;;;;;11.60;7.30;;;12.70;99.90;;;13.19;100.00;99186.78;5013042;28;20505;-79
2021/10/09 11:55:17;;;;;;;13.47;6.60;;;12.90;99.90;;;13.41;98.69;99183.34;4988668;28;20497;-79
2021/10/09 11:57:46;;;;;;;13.23;6.50;;;13.00;99.90;;;13.45;98.50;99187.28;5009525;28;20501;-79
2021/10/09 12:00:41;;;;;;;13.03;7.30;;;13.00;99.90;;;13.50;97.96;99179.66;5011837;28;20447;-79
2021/10/09 12:03:35;;;;;;;14.63;6.83;;;13.00;99.90;;;13.52;100.00;99188.19;5000040;28;20459;-79
2021/10/09 12:06:10;;;;;;;10.47;5.33;;;13.00;99.90;;;13.54;100.00;99194.06;5006941;28;20495;-79
2021/10/09 12:08:51;;;;;;;15.17;6.30;;;13.10;99.90;;;13.55;99.43;99187.84;5010200;28;20990;-79
2021/10/09 12:11:29;;;;;;;8.40;5.77;;;13.10;99.90;;;13.58;96.80;99186.66;5010613;28;20450;-79
2021/10/09 12:14:00;;;;;;;8.13;5.13;;;13.00;99.90;;;13.66;94.35;99173.44;5005729;28;20998;-79
2021/10/09 12:16:32;;;;;;;15.23;5.57;;;13.20;99.90;;;13.69;94.61;99177.53;5010973;28;20456;-79
2021/10/09 12:19:05;;;;;;;11.67;6.23;;;13.20;99.90;;;13.72;93.36;99177.97;5010466;28;20541;-79
2021/10/09 12:21:41;;;;;;;9.87;6.20;;;13.20;99.90;;;13.78;91.94;99173.84;5006063;28;20464;-79
2021/10/09 12:24:16;;;;;;;8.60;6.13;;;13.30;99.90;;;13.81;94.49;99165.59;5010757;28;20487;-79
2021/10/09 12:27:03;;;;;;;10.93;5.40;;;13.30;99.90;;;13.82;94.19;99162.75;5011846;28;20447;-79
2021/10/09 12:29:34;;;;;;;12.80;6.40;;;13.30;99.90;;;13.85;90.87;99164.25;5011821;28;20661;-79
2021/10/09 12:32:17;;;;;;;13.17;5.17;;;13.40;99.90;;;13.86;91.93;99157.97;5010965;28;20453;-79